Terminal Aerodrome Forecast
Issued by NWS Grand Forks, ND

Home | Current Version | Previous Version | Text Only | Print | Product List | Glossary Off
Versions: 1 2 3 4 5 6 7 8 9 10 11 12 13

000
FTUS43 KFGF 181700
TAFGFK
TAF
KGFK 181720Z 1818/1918 19008KT P6SM OVC017
     FM190000 18011KT P6SM SCT020 BKN200
     FM191600 27011KT P6SM SCT250=

USA.gov is the U.S. government's official web portal to all federal, state and local government web resources and services.